Time;durP1;ratioP1;P1;durP2;ratioP2;P2;SDS_P1;SDS_P2;PMS_P1;PMS_P2;Temp;Humidity;BMP_temperature;BMP_pressure;BME280_temperature;BME280_humidity;BME280_pressure;Samples;Min_cycle;Max_cycle;Signal;HPM_P1;HPM_P2
2023/03/05 00:02:12;;;;;;;3.80;2.50;;;;;;;;;;4981603;28;20447;-77
2023/03/05 00:04:38;;;;;;;8.03;2.67;;;;;;;;;;4978659;28;20448;-77
2023/03/05 00:07:07;;;;;;;6.33;2.60;;;;;;;;;;4953692;28;20447;-78
2023/03/05 00:09:33;;;;;;;4.50;2.10;;;;;;;;;;4979503;28;20582;-78
2023/03/05 00:11:59;;;;;;;7.60;2.97;;;;;;;;;;4983408;28;20547;-77
2023/03/05 00:14:25;;;;;;;9.20;2.83;;;;;;;;;;4976582;28;20452;-77
2023/03/05 00:16:51;;;;;;;10.17;2.90;;;;;;;;;;4980250;28;20443;-76
2023/03/05 00:19:17;;;;;;;6.73;3.10;;;;;;;;;;4974840;28;20443;-78
2023/03/05 00:21:44;;;;;;;4.67;2.60;;;;;;;;;;4983207;28;21267;-78
2023/03/05 00:24:16;;;;;;;8.37;2.53;;;;;;;;;;4972606;28;20953;-77
2023/03/05 00:26:41;;;;;;;6.10;2.77;;;;;;;;;;4972080;28;20449;-77
2023/03/05 00:29:08;;;;;;;4.57;2.50;;;;;;;;;;4978142;28;21031;-78
2023/03/05 00:31:35;;;;;;;5.63;2.40;;;;;;;;;;4984950;28;20471;-76
2023/03/05 00:34:03;;;;;;;6.43;2.70;;;;;;;;;;4977673;28;20510;-77
2023/03/05 00:36:29;;;;;;;5.60;2.70;;;;;;;;;;4965579;28;20459;-77
2023/03/05 00:38:58;;;;;;;5.03;2.20;;;;;;;;;;4981106;28;20487;-76
2023/03/05 00:41:25;;;;;;;8.43;3.37;;;;;;;;;;4979275;28;20464;-77
2023/03/05 00:43:51;;;;;;;3.30;3.00;;;;;;;;;;4977705;28;20452;-77
2023/03/05 00:46:17;;;;;;;4.07;3.57;;;;;;;;;;4970309;28;20414;-78
2023/03/05 00:48:43;;;;;;;10.70;3.30;;;;;;;;;;4975784;28;20463;-77
2023/03/05 00:51:09;;;;;;;5.80;3.80;;;;;;;;;;4982567;28;20992;-78
2023/03/05 00:53:35;;;;;;;5.40;3.73;;;;;;;;;;4982092;28;21259;-78
2023/03/05 00:56:05;;;;;;;2.97;2.60;;;;;;;;;;4982368;28;20434;-77
2023/03/05 00:58:31;;;;;;;5.00;3.27;;;;;;;;;;4981246;28;20966;-76
2023/03/05 01:00:58;;;;;;;8.07;3.80;;;;;;;;;;4967891;28;20510;-77
2023/03/05 01:03:25;;;;;;;6.03;3.30;;;;;;;;;;4981521;28;20456;-78
2023/03/05 01:05:51;;;;;;;3.90;3.20;;;;;;;;;;4982242;28;20502;-78
2023/03/05 01:08:17;;;;;;;4.30;2.90;;;;;;;;;;4969827;28;21012;-76
2023/03/05 01:10:43;;;;;;;5.70;2.77;;;;;;;;;;4988535;28;20443;-77
2023/03/05 01:13:09;;;;;;;3.10;2.57;;;;;;;;;;4979954;28;20513;-76
2023/03/05 01:15:35;;;;;;;3.53;2.53;;;;;;;;;;4987885;28;20451;-77
2023/03/05 01:18:01;;;;;;;10.07;3.37;;;;;;;;;;4982849;28;21046;-78
2023/03/05 01:20:27;;;;;;;2.67;2.10;;;;;;;;;;4985143;28;20478;-78
2023/03/05 01:22:58;;;;;;;5.40;2.10;;;;;;;;;;4982811;28;20595;-79
2023/03/05 01:25:24;;;;;;;3.90;2.40;;;;;;;;;;4964758;28;20440;-76
2023/03/05 01:27:52;;;;;;;4.43;2.33;;;;;;;;;;4982823;28;20445;-77
2023/03/05 01:30:18;;;;;;;4.37;1.73;;;;;;;;;;4976925;28;20479;-78
2023/03/05 01:32:44;;;;;;;6.50;1.90;;;;;;;;;;4964931;28;20436;-78
2023/03/05 01:35:14;;;;;;;8.70;3.20;;;;;;;;;;4985979;28;20630;-77
2023/03/05 01:37:40;;;;;;;3.10;2.80;;;;;;;;;;4979156;28;20571;-78
2023/03/05 01:40:07;;;;;;;3.70;1.90;;;;;;;;;;4965887;28;21056;-77
2023/03/05 01:42:33;;;;;;;2.43;1.90;;;;;;;;;;4980075;28;20488;-76
2023/03/05 01:45:01;;;;;;;3.33;2.67;;;;;;;;;;4969810;28;20413;-76
2023/03/05 01:47:27;;;;;;;6.10;2.70;;;;;;;;;;4974035;28;20494;-77
2023/03/05 01:49:53;;;;;;;4.90;2.63;;;;;;;;;;4974143;28;20534;-78
2023/03/05 01:52:21;;;;;;;3.63;3.10;;;;;;;;;;4969830;28;21042;-78
2023/03/05 01:54:47;;;;;;;4.70;2.40;;;;;;;;;;4961859;28;20441;-78
2023/03/05 01:57:15;;;;;;;4.17;2.30;;;;;;;;;;4971281;28;20539;-77
2023/03/05 01:59:43;;;;;;;2.27;2.20;;;;;;;;;;4961556;28;20419;-78
2023/03/05 02:02:09;;;;;;;3.20;2.30;;;;;;;;;;4970066;28;20416;-78
2023/03/05 02:04:42;;;;;;;2.50;2.20;;;;;;;;;;4968426;28;20441;-78
2023/03/05 02:07:08;;;;;;;2.93;1.60;;;;;;;;;;4965419;28;20409;-77
2023/03/05 02:09:36;;;;;;;8.37;1.70;;;;;;;;;;4962314;28;20476;-76
2023/03/05 02:12:02;;;;;;;4.63;1.90;;;;;;;;;;4965671;28;20445;-77
2023/03/05 02:14:28;;;;;;;4.33;2.90;;;;;;;;;;4965690;28;20453;-76
2023/03/05 02:16:54;;;;;;;2.63;1.57;;;;;;;;;;4967853;28;20543;-76
2023/03/05 02:19:20;;;;;;;3.80;1.30;;;;;;;;;;4967722;28;20446;-77
2023/03/05 02:21:49;;;;;;;2.40;1.53;;;;;;;;;;4977983;28;20421;-76
2023/03/05 02:24:16;;;;;;;1.00;0.90;;;;;;;;;;4963181;28;21173;-79
2023/03/05 02:26:43;;;;;;;4.17;1.40;;;;;;;;;;4963947;28;20804;-78
2023/03/05 02:29:11;;;;;;;1.27;1.20;;;;;;;;;;4964755;28;20464;-77
2023/03/05 02:31:37;;;;;;;1.03;1.03;;;;;;;;;;4968618;28;20404;-77
2023/03/05 02:34:04;;;;;;;4.13;1.60;;;;;;;;;;4966065;28;20452;-76
2023/03/05 02:36:30;;;;;;;1.20;1.20;;;;;;;;;;4956117;28;20408;-77
2023/03/05 02:38:57;;;;;;;1.37;1.37;;;;;;;;;;4969009;28;20875;-78
2023/03/05 02:41:24;;;;;;;1.93;1.73;;;;;;;;;;4964715;28;20437;-77
2023/03/05 02:43:50;;;;;;;1.37;1.37;;;;;;;;;;4966919;28;20830;-76
2023/03/05 02:46:16;;;;;;;1.23;1.23;;;;;;;;;;4970048;28;20692;-76
2023/03/05 02:48:43;;;;;;;1.83;1.73;;;;;;;;;;4964591;28;20533;-76
2023/03/05 02:51:09;;;;;;;6.40;1.70;;;;;;;;;;4975673;28;20882;-75
2023/03/05 02:53:35;;;;;;;1.40;1.30;;;;;;;;;;4960686;28;20935;-77
2023/03/05 02:56:01;;;;;;;3.90;1.23;;;;;;;;;;4965490;28;20425;-76
2023/03/05 02:58:27;;;;;;;2.20;1.33;;;;;;;;;;4962895;28;20496;-76
2023/03/05 03:00:53;;;;;;;1.47;1.37;;;;;;;;;;4972103;28;20484;-76
2023/03/05 03:03:20;;;;;;;1.57;1.43;;;;;;;;;;4964938;28;20451;-77
2023/03/05 03:05:45;;;;;;;2.57;1.50;;;;;;;;;;4978930;28;20845;-78
2023/03/05 03:08:11;;;;;;;2.23;1.87;;;;;;;;;;4967847;28;20548;-78
2023/03/05 03:10:37;;;;;;;1.60;1.60;;;;;;;;;;4970352;28;20616;-76
2023/03/05 03:13:03;;;;;;;4.90;1.93;;;;;;;;;;4973209;28;20415;-76
2023/03/05 03:15:29;;;;;;;3.80;1.30;;;;;;;;;;4975501;28;20426;-77
2023/03/05 03:17:55;;;;;;;1.40;1.40;;;;;;;;;;4976750;28;20448;-77
2023/03/05 03:20:21;;;;;;;5.27;2.07;;;;;;;;;;4974369;28;20976;-76
2023/03/05 03:22:47;;;;;;;1.93;1.83;;;;;;;;;;4963792;28;20449;-76
2023/03/05 03:25:15;;;;;;;1.77;1.77;;;;;;;;;;4969139;28;20434;-76
2023/03/05 03:27:41;;;;;;;2.80;1.60;;;;;;;;;;4982316;28;20408;-77
2023/03/05 03:30:07;;;;;;;2.20;2.00;;;;;;;;;;4970159;28;20475;-78
2023/03/05 03:32:33;;;;;;;2.00;1.90;;;;;;;;;;4981153;28;20440;-76
2023/03/05 03:34:59;;;;;;;4.63;2.43;;;;;;;;;;4985180;28;20408;-76
2023/03/05 03:37:26;;;;;;;3.23;3.13;;;;;;;;;;4969823;28;20429;-77
2023/03/05 03:39:52;;;;;;;4.47;2.80;;;;;;;;;;4968952;28;20827;-76
2023/03/05 03:42:21;;;;;;;9.67;4.27;;;;;;;;;;4970651;28;20778;-76
2023/03/05 03:44:48;;;;;;;5.70;3.47;;;;;;;;;;4950618;28;20765;-75
2023/03/05 03:47:14;;;;;;;7.47;3.47;;;;;;;;;;4975336;28;20932;-76
2023/03/05 03:49:40;;;;;;;4.20;2.43;;;;;;;;;;4972140;28;20454;-76
2023/03/05 03:52:06;;;;;;;7.07;3.37;;;;;;;;;;4969402;28;20411;-76
2023/03/05 03:54:32;;;;;;;10.40;3.03;;;;;;;;;;4959245;28;20420;-76
2023/03/05 03:56:58;;;;;;;6.83;2.70;;;;;;;;;;4973801;28;21078;-76
2023/03/05 03:59:24;;;;;;;8.37;3.27;;;;;;;;;;4970403;28;20418;-77
2023/03/05 04:01:50;;;;;;;7.40;3.43;;;;;;;;;;4977384;28;20432;-76
2023/03/05 04:04:17;;;;;;;3.40;3.10;;;;;;;;;;4972010;28;20427;-76
2023/03/05 04:06:43;;;;;;;3.43;3.33;;;;;;;;;;4976971;28;20457;-76
2023/03/05 04:09:09;;;;;;;3.93;2.50;;;;;;;;;;4968560;28;20434;-77
2023/03/05 04:11:36;;;;;;;2.70;2.60;;;;;;;;;;4969342;28;20408;-78
2023/03/05 04:14:02;;;;;;;58.90;35.80;;;;;;;;;;4970377;28;20456;-76
2023/03/05 04:16:28;;;;;;;19.33;11.77;;;;;;;;;;4966576;28;20443;-76
2023/03/05 04:18:54;;;;;;;8.17;4.20;;;;;;;;;;4972620;28;20412;-76
2023/03/05 04:21:20;;;;;;;16.07;4.03;;;;;;;;;;4968285;28;20405;-75
2023/03/05 04:23:46;;;;;;;10.97;3.70;;;;;;;;;;4969139;28;20452;-75
2023/03/05 04:26:12;;;;;;;7.93;4.03;;;;;;;;;;4968272;28;20448;-75
2023/03/05 04:28:38;;;;;;;14.80;4.90;;;;;;;;;;4963569;28;20416;-77
2023/03/05 04:31:04;;;;;;;6.20;4.27;;;;;;;;;;4972156;28;20415;-76
2023/03/05 04:33:30;;;;;;;11.33;3.80;;;;;;;;;;4970093;28;20419;-76
2023/03/05 04:35:56;;;;;;;8.37;4.90;;;;;;;;;;4980971;28;20471;-76
2023/03/05 04:38:22;;;;;;;4.10;2.60;;;;;;;;;;4976586;28;20432;-76
2023/03/05 04:40:48;;;;;;;4.67;3.53;;;;;;;;;;4968694;28;20439;-76
2023/03/05 04:43:14;;;;;;;5.30;4.30;;;;;;;;;;4974249;28;21096;-75
2023/03/05 04:45:41;;;;;;;7.13;4.17;;;;;;;;;;4973091;28;20407;-75
2023/03/05 04:48:07;;;;;;;6.17;4.20;;;;;;;;;;4960782;28;20423;-77
2023/03/05 04:50:33;;;;;;;7.03;5.23;;;;;;;;;;4976534;28;20434;-77
2023/03/05 04:53:00;;;;;;;6.10;3.20;;;;;;;;;;4966374;28;20447;-76
2023/03/05 04:55:26;;;;;;;7.70;4.30;;;;;;;;;;4974677;28;20779;-77
2023/03/05 04:57:52;;;;;;;5.63;3.07;;;;;;;;;;4953732;28;20499;-76
2023/03/05 05:00:19;;;;;;;4.80;2.93;;;;;;;;;;4977490;28;21174;-76
2023/03/05 05:02:46;;;;;;;7.33;3.37;;;;;;;;;;4965381;28;20437;-77
2023/03/05 05:05:13;;;;;;;5.73;4.07;;;;;;;;;;4970700;28;20413;-75
2023/03/05 05:07:40;;;;;;;12.10;3.70;;;;;;;;;;4975404;28;20816;-76
2023/03/05 05:10:06;;;;;;;5.70;3.20;;;;;;;;;;4968669;28;20456;-76
2023/03/05 05:12:33;;;;;;;6.97;4.40;;;;;;;;;;4965875;28;20408;-78
2023/03/05 05:14:59;;;;;;;4.50;3.17;;;;;;;;;;4963104;28;20426;-75
2023/03/05 05:17:25;;;;;;;7.03;3.60;;;;;;;;;;4979981;28;20699;-77
2023/03/05 05:19:51;;;;;;;5.63;4.17;;;;;;;;;;4945328;28;20841;-76
2023/03/05 05:22:18;;;;;;;11.40;3.97;;;;;;;;;;4949693;28;20468;-76
2023/03/05 05:24:44;;;;;;;7.20;3.47;;;;;;;;;;4937981;28;20428;-77
2023/03/05 05:27:10;;;;;;;5.57;3.93;;;;;;;;;;4958322;28;20444;-77
2023/03/05 05:29:36;;;;;;;4.55;3.40;;;;;;;;;;4952893;28;20459;-78
2023/03/05 05:32:02;;;;;;;4.40;3.50;;;;;;;;;;4961959;28;20261;-78
2023/03/05 05:34:28;;;;;;;5.80;2.70;;;;;;;;;;4957558;28;21123;-78
2023/03/05 05:36:53;;;;;;;7.73;3.20;;;;;;;;;;4953080;28;20442;-78
2023/03/05 05:39:19;;;;;;;7.27;3.93;;;;;;;;;;4959531;28;20478;-76
2023/03/05 05:41:45;;;;;;;6.60;3.27;;;;;;;;;;4964503;28;20424;-77
2023/03/05 05:44:11;;;;;;;4.07;2.13;;;;;;;;;;4968357;28;20462;-86
2023/03/05 05:46:37;;;;;;;3.90;3.60;;;;;;;;;;4983016;28;20468;-86
2023/03/05 05:49:03;;;;;;;3.50;3.30;;;;;;;;;;4972510;28;20559;-83
2023/03/05 05:51:29;;;;;;;5.60;2.80;;;;;;;;;;4967591;28;20450;-75
2023/03/05 05:53:56;;;;;;;7.40;4.30;;;;;;;;;;4966262;28;20812;-76
2023/03/05 05:56:22;;;;;;;3.30;2.90;;;;;;;;;;4963820;28;20474;-76
2023/03/05 05:58:48;;;;;;;2.80;2.53;;;;;;;;;;4953067;28;20445;-76
2023/03/05 06:01:19;;;;;;;5.50;2.90;;;;;;;;;;4969724;28;20426;-76
2023/03/05 06:03:45;;;;;;;5.60;3.80;;;;;;;;;;4967086;28;20906;-77
2023/03/05 06:06:12;;;;;;;8.50;3.57;;;;;;;;;;4953973;28;20450;-78
2023/03/05 06:08:38;;;;;;;5.00;3.00;;;;;;;;;;4966208;28;20405;-77
2023/03/05 06:11:05;;;;;;;7.57;3.30;;;;;;;;;;4964533;28;20404;-77
2023/03/05 06:13:31;;;;;;;11.70;3.10;;;;;;;;;;4973627;28;20435;-84
2023/03/05 06:15:58;;;;;;;3.23;3.00;;;;;;;;;;4980585;28;20406;-87
2023/03/05 06:18:24;;;;;;;10.93;3.97;;;;;;;;;;4954124;28;20437;-80
2023/03/05 06:21:00;;;;;;;4.00;3.07;;;;;;;;;;4960904;28;20470;-75
2023/03/05 06:23:27;;;;;;;4.13;2.40;;;;;;;;;;4957949;28;20448;-77
2023/03/05 06:25:53;;;;;;;5.73;2.47;;;;;;;;;;4964884;28;20424;-77
2023/03/05 06:28:20;;;;;;;3.43;2.40;;;;;;;;;;4963179;28;21201;-77
2023/03/05 06:30:46;;;;;;;5.30;2.60;;;;;;;;;;4957717;28;20468;-76
2023/03/05 06:33:12;;;;;;;4.57;2.70;;;;;;;;;;4959250;28;20613;-76
2023/03/05 06:35:39;;;;;;;2.30;2.07;;;;;;;;;;4956470;28;20928;-76
2023/03/05 06:38:05;;;;;;;7.20;3.40;;;;;;;;;;4965704;28;20434;-76
2023/03/05 06:40:31;;;;;;;2.73;2.63;;;;;;;;;;4966288;28;20517;-76
2023/03/05 06:42:57;;;;;;;6.30;3.43;;;;;;;;;;4966581;28;20490;-77
2023/03/05 06:45:23;;;;;;;3.60;2.57;;;;;;;;;;4965117;28;20608;-77
2023/03/05 06:47:49;;;;;;;9.77;3.30;;;;;;;;;;4965106;28;21019;-77
2023/03/05 06:50:15;;;;;;;2.70;2.60;;;;;;;;;;4964910;28;20456;-78
2023/03/05 06:52:42;;;;;;;10.15;6.22;;;;;;;;;;4966660;28;20479;-76
2023/03/05 06:55:09;;;;;;;23.87;12.33;;;;;;;;;;4961733;28;20609;-76
2023/03/05 06:57:35;;;;;;;11.10;2.80;;;;;;;;;;4943082;29;20857;-75
2023/03/05 07:00:06;;;;;;;4.17;3.20;;;;;;;;;;4960129;28;20420;-77
2023/03/05 07:02:32;;;;;;;4.63;3.20;;;;;;;;;;4966950;28;20445;-77
2023/03/05 07:05:01;;;;;;;4.77;2.80;;;;;;;;;;4962128;28;21019;-78
2023/03/05 07:07:27;;;;;;;3.27;2.97;;;;;;;;;;4964808;28;20419;-76
2023/03/05 07:09:53;;;;;;;5.67;2.67;;;;;;;;;;4962741;28;20448;-77
2023/03/05 07:12:19;;;;;;;3.60;2.77;;;;;;;;;;4948715;28;20526;-77
2023/03/05 07:14:45;;;;;;;4.50;2.87;;;;;;;;;;4965148;28;20465;-77
2023/03/05 07:17:14;;;;;;;3.73;3.40;;;;;;;;;;4962604;28;20452;-77
2023/03/05 07:19:40;;;;;;;2.97;2.60;;;;;;;;;;4974445;28;20509;-77
2023/03/05 07:22:06;;;;;;;2.77;2.57;;;;;;;;;;4987787;28;20960;-78
2023/03/05 07:24:32;;;;;;;9.50;2.97;;;;;;;;;;4985208;28;20459;-77
2023/03/05 07:26:58;;;;;;;4.40;2.70;;;;;;;;;;4975411;28;20966;-77
2023/03/05 07:29:25;;;;;;;2.77;2.37;;;;;;;;;;4971904;28;21010;-76
2023/03/05 07:31:51;;;;;;;4.83;4.47;;;;;;;;;;4995476;28;20444;-83
2023/03/05 07:34:18;;;;;;;8.00;4.40;;;;;;;;;;4994337;28;20416;-76
2023/03/05 07:36:44;;;;;;;8.70;4.20;;;;;;;;;;4986884;28;20560;-78
2023/03/05 07:39:11;;;;;;;3.40;3.10;;;;;;;;;;4973592;28;20427;-79
2023/03/05 07:41:37;;;;;;;9.07;4.33;;;;;;;;;;4986036;28;20876;-77
2023/03/05 07:44:04;;;;;;;7.93;3.27;;;;;;;;;;4986425;28;20997;-76
2023/03/05 07:46:31;;;;;;;7.50;3.90;;;;;;;;;;4981464;28;20888;-77
2023/03/05 07:48:57;;;;;;;5.38;4.00;;;;;;;;;;4978600;28;20551;-77
2023/03/05 07:51:24;;;;;;;8.13;4.00;;;;;;;;;;4983324;28;20196;-78
2023/03/05 07:53:51;;;;;;;6.70;3.47;;;;;;;;;;4978536;28;20865;-77
2023/03/05 07:56:35;;;;;;;6.67;3.60;;;;;;;;;;4978612;28;20429;-78
2023/03/05 07:59:06;;;;;;;5.50;3.50;;;;;;;;;;4976909;28;20433;-77
2023/03/05 08:01:32;;;;;;;13.00;3.70;;;;;;;;;;4981970;28;20500;-78
2023/03/05 08:03:58;;;;;;;5.10;2.87;;;;;;;;;;4979689;28;20421;-77
2023/03/05 08:06:24;;;;;;;3.00;2.80;;;;;;;;;;4981564;28;20966;-78
2023/03/05 08:08:50;;;;;;;3.87;3.30;;;;;;;;;;4978456;28;20448;-79
2023/03/05 08:11:17;;;;;;;10.80;4.07;;;;;;;;;;4978420;28;20436;-77
2023/03/05 08:13:44;;;;;;;7.40;3.80;;;;;;;;;;4976028;28;20455;-77
2023/03/05 08:16:14;;;;;;;3.23;3.00;;;;;;;;;;4981415;28;20555;-77
2023/03/05 08:18:40;;;;;;;6.23;3.27;;;;;;;;;;4971386;28;21099;-78
2023/03/05 08:21:07;;;;;;;10.27;5.17;;;;;;;;;;4958857;28;20548;-78
2023/03/05 08:23:36;;;;;;;6.40;3.87;;;;;;;;;;4969839;28;20440;-76
2023/03/05 08:26:10;;;;;;;7.43;3.83;;;;;;;;;;4967605;28;20451;-77
2023/03/05 08:28:36;;;;;;;6.40;3.80;;;;;;;;;;4968766;28;20975;-77
2023/03/05 08:31:07;;;;;;;5.53;3.63;;;;;;;;;;4970658;28;20442;-77
2023/03/05 08:33:33;;;;;;;10.37;5.40;;;;;;;;;;4971309;28;20431;-78
2023/03/05 08:35:59;;;;;;;10.97;5.23;;;;;;;;;;4951277;28;20434;-78
2023/03/05 08:38:25;;;;;;;5.63;5.13;;;;;;;;;;4969047;28;20470;-76
2023/03/05 08:40:51;;;;;;;13.07;6.73;;;;;;;;;;4971504;28;20468;-77
2023/03/05 08:43:17;;;;;;;14.07;8.60;;;;;;;;;;4970923;28;20519;-78
2023/03/05 08:45:43;;;;;;;7.03;6.27;;;;;;;;;;4969737;28;20495;-75
2023/03/05 08:48:09;;;;;;;15.20;8.00;;;;;;;;;;4981795;28;20432;-85
2023/03/05 08:53:07;;;;;;;10.50;6.83;;;;;;;;;;4937712;28;20471;-76
2023/03/05 08:55:33;;;;;;;5.53;4.50;;;;;;;;;;4934880;28;20569;-77
2023/03/05 08:57:59;;;;;;;8.43;5.27;;;;;;;;;;4918172;29;20554;-76
2023/03/05 09:00:25;;;;;;;11.20;8.10;;;;;;;;;;4935046;28;20557;-75
2023/03/05 09:02:51;;;;;;;8.80;5.60;;;;;;;;;;4935302;28;20450;-77
2023/03/05 09:05:18;;;;;;;7.63;6.83;;;;;;;;;;4933470;28;20439;-75
2023/03/05 09:07:44;;;;;;;15.97;10.23;;;;;;;;;;4932328;29;20436;-75
2023/03/05 09:10:12;;;;;;;13.10;8.40;;;;;;;;;;4938825;28;20909;-76
2023/03/05 09:12:38;;;;;;;12.10;7.40;;;;;;;;;;4940321;28;20830;-78
2023/03/05 09:15:07;;;;;;;9.67;8.37;;;;;;;;;;4942106;28;20994;-76
2023/03/05 09:17:33;;;;;;;12.57;10.07;;;;;;;;;;4938654;28;20435;-76
2023/03/05 09:19:59;;;;;;;16.53;10.50;;;;;;;;;;4933104;29;20442;-76
2023/03/05 09:22:25;;;;;;;16.93;12.77;;;;;;;;;;4938531;29;20453;-78
2023/03/05 09:24:51;;;;;;;13.53;11.50;;;;;;;;;;4925392;29;20435;-76
2023/03/05 09:27:17;;;;;;;10.97;9.70;;;;;;;;;;4935383;28;20457;-77
2023/03/05 09:29:44;;;;;;;17.37;13.43;;;;;;;;;;4944357;29;20473;-86
2023/03/05 09:32:10;;;;;;;26.53;16.10;;;;;;;;;;4963136;29;20460;-84
2023/03/05 09:34:36;;;;;;;21.50;15.83;;;;;;;;;;4954584;29;20454;-75
2023/03/05 09:37:03;;;;;;;20.23;15.77;;;;;;;;;;4936031;29;20449;-75
2023/03/05 09:39:29;;;;;;;21.70;13.57;;;;;;;;;;4923873;28;21011;-77
2023/03/05 09:42:03;;;;;;;34.77;15.20;;;;;;;;;;4913720;29;20520;-76
2023/03/05 09:44:40;;;;;;;22.13;14.00;;;;;;;;;;4940903;28;20476;-83
2023/03/05 09:47:06;;;;;;;16.37;13.83;;;;;;;;;;4940969;28;20464;-83
2023/03/05 09:49:36;;;;;;;12.70;9.30;;;;;;;;;;4960607;28;20485;-86
2023/03/05 09:52:10;;;;;;;15.13;12.60;;;;;;;;;;4953860;28;20519;-76
2023/03/05 09:54:39;;;;;;;11.97;10.43;;;;;;;;;;4934719;28;20505;-75
2023/03/05 09:57:10;;;;;;;12.20;9.50;;;;;;;;;;4934203;29;20544;-76
2023/03/05 09:59:56;;;;;;;11.00;8.03;;;;;;;;;;4936461;28;20442;-76
2023/03/05 10:02:27;;;;;;;15.20;8.70;;;;;;;;;;4928041;29;20436;-77
2023/03/05 10:05:12;;;;;;;15.50;11.93;;;;;;;;;;4937734;28;21514;-76
2023/03/05 10:07:39;;;;;;;13.60;12.20;;;;;;;;;;4936501;29;20535;-77
2023/03/05 10:10:09;;;;;;;15.67;11.33;;;;;;;;;;4939000;29;20822;-78
2023/03/05 10:12:41;;;;;;;15.90;11.07;;;;;;;;;;4936297;28;20438;-76
2023/03/05 10:15:14;;;;;;;10.57;9.10;;;;;;;;;;4934741;28;20445;-76
2023/03/05 10:17:54;;;;;;;12.63;11.30;;;;;;;;;;4940158;29;20607;-77
2023/03/05 10:20:24;;;;;;;14.80;10.70;;;;;;;;;;4941272;28;20544;-76
2023/03/05 10:23:04;;;;;;;15.20;12.03;;;;;;;;;;4939247;29;20485;-78
2023/03/05 10:25:42;;;;;;;15.27;12.27;;;;;;;;;;4941996;29;20418;-75
2023/03/05 10:28:21;;;;;;;15.27;10.67;;;;;;;;;;4940521;28;20470;-76
2023/03/05 10:31:20;;;;;;;13.00;9.70;;;;;;;;;;4937948;29;21241;-77
2023/03/05 10:33:52;;;;;;;12.93;10.03;;;;;;;;;;4906894;28;20646;-76
2023/03/05 10:36:26;;;;;;;11.97;8.03;;;;;;;;;;4925062;29;20466;-78
2023/03/05 10:39:14;;;;;;;10.47;8.50;;;;;;;;;;4940073;28;20605;-78
2023/03/05 10:41:52;;;;;;;9.20;8.40;;;;;;;;;;4932117;28;20494;-78
2023/03/05 10:44:25;;;;;;;12.20;8.47;;;;;;;;;;4932692;28;20469;-76
2023/03/05 10:46:51;;;;;;;17.97;8.63;;;;;;;;;;4936399;28;20940;-76
2023/03/05 10:49:37;;;;;;;11.63;9.90;;;;;;;;;;4933668;28;20473;-76
2023/03/05 10:52:07;;;;;;;12.03;10.77;;;;;;;;;;4923204;29;20469;-80
2023/03/05 10:54:34;;;;;;;15.50;12.83;;;;;;;;;;4935411;29;20458;-77
2023/03/05 10:57:19;;;;;;;17.80;13.27;;;;;;;;;;4935819;28;20525;-78
2023/03/05 10:59:51;;;;;;;13.17;11.77;;;;;;;;;;4932081;28;20450;-77
2023/03/05 11:02:18;;;;;;;14.20;12.70;;;;;;;;;;4936300;29;21013;-76
2023/03/05 11:04:46;;;;;;;18.70;14.20;;;;;;;;;;4934320;29;20549;-77
2023/03/05 11:07:14;;;;;;;15.63;12.50;;;;;;;;;;4937261;28;20434;-77
2023/03/05 11:09:41;;;;;;;13.97;10.97;;;;;;;;;;4920892;29;20466;-76
2023/03/05 11:12:20;;;;;;;11.77;9.40;;;;;;;;;;4916478;29;20518;-78
2023/03/05 11:15:04;;;;;;;14.90;11.03;;;;;;;;;;4930088;29;20522;-78
2023/03/05 11:17:32;;;;;;;11.23;10.17;;;;;;;;;;4932177;28;20437;-77
2023/03/05 11:20:19;;;;;;;9.70;8.80;;;;;;;;;;4932195;28;20576;-76
2023/03/05 11:23:05;;;;;;;16.13;11.00;;;;;;;;;;4936760;28;20444;-80
2023/03/05 11:25:33;;;;;;;10.10;9.13;;;;;;;;;;4934041;28;20512;-76
2023/03/05 11:28:00;;;;;;;5.63;5.33;;;;;;;;;;4945312;29;20545;-78
2023/03/05 11:30:28;;;;;;;3.90;3.60;;;;;;;;;;4940998;28;20496;-78
2023/03/05 11:33:21;;;;;;;2.17;2.17;;;;;;;;;;4921027;29;20431;-78
2023/03/05 11:35:48;;;;;;;1.50;1.40;;;;;;;;;;4933791;29;20997;-79
2023/03/05 11:38:17;;;;;;;3.20;1.63;;;;;;;;;;4938342;29;20449;-78
2023/03/05 11:40:43;;;;;;;1.23;1.23;;;;;;;;;;4934092;28;20461;-77
2023/03/05 11:43:14;;;;;;;2.97;2.87;;;;;;;;;;4917108;29;20186;-79
2023/03/05 11:45:40;;;;;;;2.80;2.20;;;;;;;;;;4930577;28;20451;-79
2023/03/05 11:48:18;;;;;;;2.10;2.10;;;;;;;;;;4933666;29;20446;-78
2023/03/05 11:50:46;;;;;;;3.80;3.60;;;;;;;;;;4932452;28;20573;-79
2023/03/05 11:53:18;;;;;;;4.10;3.88;;;;;;;;;;4918762;29;20446;-79
2023/03/05 11:55:56;;;;;;;6.07;4.47;;;;;;;;;;4911343;29;20222;-79
2023/03/05 11:58:25;;;;;;;6.03;4.73;;;;;;;;;;4938189;28;20485;-78
2023/03/05 12:00:51;;;;;;;4.07;3.80;;;;;;;;;;4919504;29;20947;-78
2023/03/05 12:03:44;;;;;;;4.40;4.10;;;;;;;;;;4938716;28;20458;-78
2023/03/05 12:06:26;;;;;;;5.90;4.27;;;;;;;;;;4928837;28;20461;-77
2023/03/05 12:08:56;;;;;;;3.83;3.47;;;;;;;;;;4939188;29;20449;-78
2023/03/05 12:11:25;;;;;;;4.90;3.67;;;;;;;;;;4914921;28;20485;-78
2023/03/05 12:13:56;;;;;;;6.97;6.57;;;;;;;;;;4938829;28;21004;-77
2023/03/05 12:16:23;;;;;;;8.53;7.83;;;;;;;;;;4935614;29;21000;-77
2023/03/05 12:18:58;;;;;;;9.17;8.43;;;;;;;;;;4936821;29;20449;-78
2023/03/05 12:21:31;;;;;;;9.50;8.67;;;;;;;;;;4934734;28;20548;-77
2023/03/05 12:24:00;;;;;;;6.67;6.33;;;;;;;;;;4942171;28;20449;-79
2023/03/05 12:26:45;;;;;;;6.20;5.90;;;;;;;;;;4917933;29;20458;-78
2023/03/05 12:29:30;;;;;;;6.33;5.87;;;;;;;;;;4938527;28;20524;-76
2023/03/05 12:31:57;;;;;;;7.20;6.60;;;;;;;;;;4918357;29;20453;-77
2023/03/05 12:34:41;;;;;;;8.50;7.70;;;;;;;;;;4935941;28;20797;-78
2023/03/05 12:37:27;;;;;;;8.33;7.50;;;;;;;;;;4935541;28;20442;-77
2023/03/05 12:40:03;;;;;;;8.37;7.70;;;;;;;;;;4908874;29;20477;-78
2023/03/05 12:42:29;;;;;;;7.37;6.70;;;;;;;;;;4936799;29;20945;-80
2023/03/05 12:45:33;;;;;;;8.27;6.77;;;;;;;;;;4939517;28;21088;-78
2023/03/05 12:47:59;;;;;;;7.40;6.63;;;;;;;;;;4928432;29;20460;-78
2023/03/05 12:50:28;;;;;;;7.93;7.40;;;;;;;;;;4942270;28;20678;-78
2023/03/05 12:53:00;;;;;;;8.93;8.03;;;;;;;;;;4944001;28;20521;-79
2023/03/05 12:55:28;;;;;;;7.50;6.87;;;;;;;;;;4947626;28;20438;-77
2023/03/05 12:57:57;;;;;;;8.77;7.40;;;;;;;;;;4949029;28;20438;-78
2023/03/05 13:00:32;;;;;;;9.30;7.50;;;;;;;;;;4943135;29;20976;-78
2023/03/05 13:02:59;;;;;;;10.63;7.30;;;;;;;;;;4926064;29;20437;-78
2023/03/05 13:05:28;;;;;;;9.80;8.00;;;;;;;;;;4922484;29;20544;-78
2023/03/05 13:08:08;;;;;;;8.20;7.50;;;;;;;;;;4942592;28;20979;-77
2023/03/05 13:10:34;;;;;;;10.80;7.50;;;;;;;;;;4940404;29;21281;-77
2023/03/05 13:13:01;;;;;;;8.37;7.57;;;;;;;;;;4945077;29;20582;-77
2023/03/05 13:15:28;;;;;;;7.07;6.47;;;;;;;;;;4940384;29;20469;-74
2023/03/05 13:17:57;;;;;;;8.67;7.90;;;;;;;;;;4944600;29;20543;-76
2023/03/05 13:20:23;;;;;;;7.60;6.67;;;;;;;;;;4940273;28;20512;-77
2023/03/05 13:23:02;;;;;;;8.10;7.30;;;;;;;;;;4944461;28;20442;-77
2023/03/05 13:25:28;;;;;;;9.30;5.90;;;;;;;;;;4938600;29;20869;-78
2023/03/05 13:28:02;;;;;;;6.50;4.97;;;;;;;;;;4941831;28;20469;-78
2023/03/05 13:30:28;;;;;;;5.87;5.37;;;;;;;;;;4943604;29;20481;-79
2023/03/05 13:32:57;;;;;;;4.80;4.60;;;;;;;;;;4945874;29;20430;-78
2023/03/05 13:35:24;;;;;;;5.30;4.83;;;;;;;;;;4945778;28;20523;-81
2023/03/05 13:37:50;;;;;;;4.43;3.53;;;;;;;;;;4947953;29;20430;-78
2023/03/05 13:40:21;;;;;;;5.50;5.10;;;;;;;;;;4925940;29;20457;-79
2023/03/05 13:42:47;;;;;;;6.07;5.57;;;;;;;;;;4947535;29;20456;-78
2023/03/05 13:45:21;;;;;;;6.07;5.63;;;;;;;;;;4944123;28;20457;-78
2023/03/05 13:47:58;;;;;;;5.03;4.83;;;;;;;;;;4946834;28;20902;-79
2023/03/05 13:50:25;;;;;;;4.40;4.30;;;;;;;;;;4930952;28;20457;-78
2023/03/05 13:52:52;;;;;;;6.17;5.67;;;;;;;;;;4946960;29;20538;-78
2023/03/05 13:55:18;;;;;;;5.17;4.87;;;;;;;;;;4944041;28;20443;-79
2023/03/05 13:57:46;;;;;;;3.17;3.00;;;;;;;;;;4946452;29;20431;-77
2023/03/05 14:00:31;;;;;;;3.30;3.07;;;;;;;;;;4942886;29;20533;-79
2023/03/05 14:02:59;;;;;;;4.00;3.80;;;;;;;;;;4944265;29;20473;-79
2023/03/05 14:05:26;;;;;;;4.80;4.40;;;;;;;;;;4945216;29;20705;-79
2023/03/05 14:07:52;;;;;;;4.40;4.10;;;;;;;;;;4948162;29;20525;-80
2023/03/05 14:10:35;;;;;;;5.23;4.93;;;;;;;;;;4943944;28;20898;-80
2023/03/05 14:13:04;;;;;;;5.37;4.23;;;;;;;;;;4946181;29;20458;-79
2023/03/05 14:15:33;;;;;;;6.40;4.83;;;;;;;;;;4946733;28;20448;-78
2023/03/05 14:18:16;;;;;;;4.17;3.87;;;;;;;;;;4945959;28;20538;-77
2023/03/05 14:20:57;;;;;;;3.87;3.67;;;;;;;;;;4943765;29;20930;-79
2023/03/05 14:23:33;;;;;;;2.43;2.43;;;;;;;;;;4945676;29;20501;-78
2023/03/05 14:26:17;;;;;;;2.70;2.57;;;;;;;;;;4945359;29;20495;-77
2023/03/05 14:28:44;;;;;;;1.40;1.40;;;;;;;;;;4937981;28;20502;-78
2023/03/05 14:31:15;;;;;;;1.40;1.40;;;;;;;;;;4941952;28;20478;-78
2023/03/05 14:33:41;;;;;;;1.80;1.70;;;;;;;;;;4938924;29;20561;-77
2023/03/05 14:36:07;;;;;;;1.70;1.70;;;;;;;;;;4932613;28;20443;-78
2023/03/05 14:38:33;;;;;;;2.10;2.10;;;;;;;;;;4936136;29;20490;-77
2023/03/05 14:41:18;;;;;;;1.77;1.77;;;;;;;;;;4942013;29;20430;-78
2023/03/05 14:43:44;;;;;;;3.30;3.20;;;;;;;;;;4932981;29;20454;-79
2023/03/05 14:46:10;;;;;;;2.77;2.67;;;;;;;;;;4931082;28;20443;-78
2023/03/05 14:48:36;;;;;;;4.57;4.37;;;;;;;;;;4934047;28;20512;-79
2023/03/05 14:51:02;;;;;;;3.13;2.93;;;;;;;;;;4941779;28;20491;-79